createdAt,value
2023-05-04T00:01:01.179Z,99.90
2023-05-04T00:03:28.429Z,99.90
2023-05-04T00:05:56.025Z,99.90
2023-05-04T00:08:23.037Z,99.90
2023-05-04T00:10:50.375Z,1.00
2023-05-04T00:13:17.456Z,1.00
2023-05-04T00:15:44.828Z,99.90
2023-05-04T00:18:11.876Z,90.80
2023-05-04T00:20:39.237Z,99.90
2023-05-04T00:23:06.376Z,99.90
2023-05-04T00:25:33.775Z,99.90
2023-05-04T00:28:00.849Z,99.90
2023-05-04T00:30:28.161Z,99.90
2023-05-04T00:32:55.281Z,99.90
2023-05-04T00:35:22.700Z,99.90
2023-05-04T00:37:49.858Z,46.60
2023-05-04T00:40:17.311Z,99.90
2023-05-04T00:42:44.305Z,1.00
2023-05-04T00:45:12.012Z,99.90
2023-05-04T00:47:39.198Z,1.00
2023-05-04T00:50:07.534Z,1.00
2023-05-04T00:52:35.348Z,99.90
2023-05-04T00:55:02.687Z,1.00
2023-05-04T00:57:30.312Z,99.90
2023-05-04T00:59:57.710Z,99.90
2023-05-04T01:02:24.842Z,99.90
2023-05-04T01:04:52.381Z,99.90
2023-05-04T01:07:44.511Z,99.90
2023-05-04T01:10:41.051Z,99.90
2023-05-04T01:13:12.503Z,99.90
2023-05-04T01:15:42.465Z,99.90
2023-05-04T01:18:09.959Z,99.90
2023-05-04T01:20:37.399Z,99.90
2023-05-04T01:23:04.565Z,99.90
2023-05-04T01:25:41.361Z,99.90
2023-05-04T01:28:13.726Z,99.90
2023-05-04T01:30:45.300Z,1.00
2023-05-04T01:33:12.764Z,1.00
2023-05-04T01:35:40.438Z,1.00
2023-05-04T01:38:07.686Z,1.00
2023-05-04T01:40:35.002Z,1.00
2023-05-04T01:43:02.068Z,1.00
2023-05-04T01:45:29.458Z,1.00
2023-05-04T01:47:56.816Z,1.00
2023-05-04T01:50:24.249Z,1.00
2023-05-04T01:52:51.441Z,1.00
2023-05-04T01:55:18.716Z,99.90
2023-05-04T01:57:45.775Z,99.90
2023-05-04T02:00:14.972Z,99.90
2023-05-04T02:02:45.375Z,16.80
2023-05-04T02:05:18.819Z,99.90
2023-05-04T02:07:46.117Z,6.00
2023-05-04T02:10:13.667Z,99.90
2023-05-04T02:12:43.057Z,99.90
2023-05-04T02:15:11.038Z,99.90
2023-05-04T02:17:38.046Z,73.90
2023-05-04T02:20:07.881Z,99.90
2023-05-04T02:22:35.294Z,99.90
2023-05-04T02:25:03.355Z,99.90
2023-05-04T02:27:30.714Z,99.90
2023-05-04T02:30:01.032Z,1.00
2023-05-04T02:32:28.113Z,1.00
2023-05-04T02:34:55.410Z,1.00
2023-05-04T02:37:22.407Z,1.00
2023-05-04T02:39:49.800Z,1.00
2023-05-04T02:42:17.372Z,1.00
2023-05-04T02:44:44.983Z,1.00
2023-05-04T02:47:12.408Z,1.60
2023-05-04T02:49:39.673Z,1.00
2023-05-04T02:52:06.822Z,4.20
2023-05-04T02:54:34.238Z,6.50
2023-05-04T02:57:01.306Z,9.50
2023-05-04T02:59:28.545Z,8.50
2023-05-04T03:01:55.646Z,12.00
2023-05-04T03:04:23.102Z,11.80
2023-05-04T03:06:51.521Z,19.90
2023-05-04T03:09:19.035Z,19.00
2023-05-04T03:11:46.041Z,26.10
2023-05-04T03:14:13.332Z,28.60
2023-05-04T03:16:41.229Z,26.10
2023-05-04T03:19:08.527Z,21.50
2023-05-04T03:21:36.090Z,16.50
2023-05-04T03:24:04.456Z,2.30
2023-05-04T03:26:31.491Z,1.00
2023-05-04T03:28:58.834Z,1.00
2023-05-04T03:31:26.145Z,1.00
2023-05-04T03:33:54.754Z,1.00
2023-05-04T03:36:22.808Z,1.00
2023-05-04T03:38:51.375Z,1.00
2023-05-04T03:41:18.452Z,1.00
2023-05-04T03:43:45.793Z,99.90
2023-05-04T03:46:13.244Z,99.90
2023-05-04T03:48:40.791Z,99.90
2023-05-04T03:51:11.063Z,99.90
2023-05-04T03:53:38.382Z,99.90
2023-05-04T03:56:05.771Z,99.90
2023-05-04T03:58:33.121Z,99.90
2023-05-04T04:01:03.823Z,99.90
2023-05-04T04:03:31.748Z,99.90
2023-05-04T04:05:59.394Z,93.70
2023-05-04T04:08:27.055Z,99.90
2023-05-04T04:10:53.998Z,99.90
2023-05-04T04:13:21.597Z,99.90
2023-05-04T04:15:48.777Z,99.90
2023-05-04T04:18:16.247Z,1.00
2023-05-04T04:20:43.225Z,99.90
2023-05-04T04:23:10.760Z,99.90
2023-05-04T04:25:38.214Z,99.90
2023-05-04T04:28:05.544Z,99.90
2023-05-04T04:30:32.801Z,1.00
2023-05-04T04:33:00.600Z,99.90
2023-05-04T04:35:28.024Z,99.90
2023-05-04T04:37:55.417Z,99.90
2023-05-04T04:40:22.561Z,99.90
2023-05-04T04:42:49.911Z,99.90
2023-05-04T04:45:17.259Z,99.90
2023-05-04T04:47:45.474Z,99.90
2023-05-04T04:50:13.234Z,99.90
2023-05-04T04:52:41.404Z,99.90
2023-05-04T04:55:09.020Z,99.90
2023-05-04T04:57:36.797Z,99.90
2023-05-04T05:00:09.441Z,99.90
2023-05-04T05:02:39.296Z,99.90
2023-05-04T05:05:09.160Z,99.90
2023-05-04T05:07:36.901Z,99.90
2023-05-04T05:10:04.463Z,99.90
2023-05-04T05:12:33.540Z,99.90
2023-05-04T05:15:00.563Z,99.90
2023-05-04T05:17:28.050Z,99.90
2023-05-04T05:19:55.007Z,99.90
2023-05-04T05:22:22.369Z,99.90
2023-05-04T05:24:49.427Z,99.90
2023-05-04T05:27:17.073Z,99.90
2023-05-04T05:29:44.566Z,99.90
2023-05-04T05:32:12.100Z,99.90
2023-05-04T05:34:39.169Z,99.90
2023-05-04T05:37:06.535Z,99.90
2023-05-04T05:39:34.356Z,99.90
2023-05-04T05:42:01.919Z,99.90
2023-05-04T05:44:29.057Z,99.90
2023-05-04T05:46:56.698Z,99.90
2023-05-04T05:49:23.883Z,99.90
2023-05-04T05:51:51.194Z,99.90
2023-05-04T05:54:18.264Z,99.90
2023-05-04T05:56:45.605Z,99.90
2023-05-04T05:59:15.741Z,99.90
2023-05-04T06:01:43.109Z,99.90
2023-05-04T06:04:10.349Z,99.90
2023-05-04T06:06:38.655Z,99.90
2023-05-04T06:09:05.885Z,99.90
2023-05-04T06:11:33.184Z,99.90
2023-05-04T06:14:03.165Z,99.90
2023-05-04T06:16:30.886Z,99.90
2023-05-04T06:18:58.771Z,99.90
2023-05-04T06:21:26.280Z,99.90
2023-05-04T06:23:53.253Z,99.90
2023-05-04T06:26:22.065Z,99.90
2023-05-04T06:28:49.083Z,99.90
2023-05-04T06:31:16.417Z,99.90
2023-05-04T06:33:43.507Z,99.90
2023-05-04T06:36:12.444Z,99.90
2023-05-04T06:38:39.526Z,99.90
2023-05-04T06:41:06.885Z,99.90
2023-05-04T06:43:34.074Z,99.90
2023-05-04T06:46:05.596Z,99.90
2023-05-04T06:48:32.654Z,99.90
2023-05-04T06:51:03.181Z,99.90
2023-05-04T06:53:30.299Z,99.90
2023-05-04T06:55:59.606Z,99.90
2023-05-04T06:58:27.088Z,99.90
2023-05-04T07:00:54.996Z,99.90
2023-05-04T07:03:22.181Z,99.90
2023-05-04T07:05:51.300Z,99.90
2023-05-04T07:08:19.683Z,99.90
2023-05-04T07:10:47.150Z,99.90
2023-05-04T07:13:14.447Z,99.90
2023-05-04T07:15:41.856Z,99.90
2023-05-04T07:18:09.314Z,99.90
2023-05-04T07:20:36.823Z,99.90
2023-05-04T07:23:04.929Z,99.90
2023-05-04T07:25:36.979Z,99.90
2023-05-04T07:28:08.823Z,99.90
2023-05-04T07:30:41.070Z,99.90
2023-05-04T07:33:08.232Z,99.90
2023-05-04T07:35:35.805Z,99.90
2023-05-04T07:38:03.480Z,99.90
2023-05-04T07:40:42.154Z,99.90
2023-05-04T07:43:13.919Z,99.90
2023-05-04T07:45:44.095Z,99.90
2023-05-04T07:48:14.694Z,99.90
2023-05-04T07:50:42.588Z,99.90
2023-05-04T07:53:10.870Z,99.90
2023-05-04T07:55:38.512Z,99.90
2023-05-04T07:58:05.604Z,99.90
2023-05-04T08:00:33.014Z,99.90
2023-05-04T08:03:00.110Z,99.90
2023-05-04T08:05:27.494Z,99.90
2023-05-04T08:07:54.533Z,99.90
2023-05-04T08:10:24.741Z,99.90
2023-05-04T08:12:52.031Z,99.90
2023-05-04T08:15:19.401Z,99.90
2023-05-04T08:17:46.849Z,99.90
2023-05-04T08:20:14.453Z,99.90
2023-05-04T08:22:42.013Z,99.90
2023-05-04T08:25:09.643Z,99.90
2023-05-04T08:27:36.653Z,99.90
2023-05-04T08:30:05.191Z,99.90
2023-05-04T08:32:33.362Z,99.90
2023-05-04T08:35:00.870Z,99.90
2023-05-04T08:37:27.847Z,99.90
2023-05-04T08:39:55.154Z,99.90
2023-05-04T08:42:32.797Z,99.90
2023-05-04T08:45:01.042Z,99.90
2023-05-04T08:47:31.959Z,99.90
2023-05-04T08:49:59.339Z,99.90
2023-05-04T08:52:27.577Z,99.90
2023-05-04T08:54:57.647Z,99.90
2023-05-04T08:57:25.715Z,99.90
2023-05-04T08:59:54.580Z,99.90
2023-05-04T09:02:23.720Z,99.90
2023-05-04T09:04:52.714Z,99.90
2023-05-04T09:07:21.510Z,99.90
2023-05-04T09:09:52.642Z,99.90
2023-05-04T09:12:19.787Z,99.90
2023-05-04T09:14:47.446Z,99.90
2023-05-04T09:17:25.849Z,99.90
2023-05-04T09:20:03.667Z,99.90
2023-05-04T09:22:31.135Z,99.90
2023-05-04T09:25:14.561Z,99.90
2023-05-04T09:27:42.757Z,99.90
2023-05-04T09:30:12.547Z,99.90
2023-05-04T09:32:46.749Z,99.90
2023-05-04T09:35:29.371Z,99.90
2023-05-04T09:38:00.144Z,99.90
2023-05-04T09:40:37.172Z,99.90
2023-05-04T09:43:04.612Z,99.90
2023-05-04T09:45:45.017Z,99.90
2023-05-04T09:48:25.520Z,99.90
2023-05-04T09:50:55.014Z,99.90
2023-05-04T09:53:27.309Z,99.90
2023-05-04T09:56:14.767Z,99.90
2023-05-04T09:58:49.885Z,99.90
2023-05-04T10:01:18.173Z,99.90
2023-05-04T10:03:46.564Z,99.90
2023-05-04T10:06:14.698Z,99.90
2023-05-04T10:08:42.098Z,99.90
2023-05-04T10:11:09.934Z,99.90
2023-05-04T10:13:37.928Z,99.90
2023-05-04T10:16:14.458Z,99.90
2023-05-04T10:19:09.939Z,99.90
2023-05-04T10:22:00.278Z,99.90
2023-05-04T10:25:06.003Z,99.90
2023-05-04T10:27:45.908Z,99.90
2023-05-04T10:30:17.110Z,99.90
2023-05-04T10:32:45.390Z,99.90
2023-05-04T10:35:18.606Z,99.90
2023-05-04T10:37:57.180Z,99.90
2023-05-04T10:40:38.512Z,99.90
2023-05-04T10:43:07.666Z,99.90
2023-05-04T10:45:36.670Z,99.90
2023-05-04T10:48:05.108Z,99.90
2023-05-04T10:50:46.040Z,99.90
2023-05-04T10:53:17.352Z,99.90
2023-05-04T10:55:46.600Z,99.90
2023-05-04T10:58:19.160Z,99.90
2023-05-04T11:00:48.133Z,99.90
2023-05-04T11:03:19.155Z,99.90
2023-05-04T11:05:51.013Z,99.90
2023-05-04T11:08:25.942Z,99.90
2023-05-04T11:11:03.001Z,99.90
2023-05-04T11:13:33.751Z,99.90
2023-05-04T11:16:01.709Z,99.90
2023-05-04T11:18:31.130Z,99.90
2023-05-04T11:20:58.745Z,99.90
2023-05-04T11:23:26.656Z,99.90
2023-05-04T11:25:54.908Z,99.90
2023-05-04T11:28:36.036Z,99.90
2023-05-04T11:31:17.153Z,99.90
2023-05-04T11:33:52.276Z,99.90
2023-05-04T11:36:19.641Z,99.90
2023-05-04T11:38:47.790Z,99.90
2023-05-04T11:41:15.189Z,99.90
2023-05-04T11:43:44.760Z,99.90
2023-05-04T11:46:12.816Z,99.90
2023-05-04T11:48:41.062Z,99.90
2023-05-04T11:51:08.707Z,99.90
2023-05-04T11:53:40.080Z,99.90
2023-05-04T11:56:11.096Z,99.90
2023-05-04T11:58:39.136Z,99.90
2023-05-04T12:01:06.333Z,99.90
2023-05-04T12:03:52.182Z,99.90
2023-05-04T12:06:33.797Z,99.90
2023-05-04T12:09:06.068Z,99.90
2023-05-04T12:11:34.829Z,99.90
2023-05-04T12:14:10.298Z,99.90
2023-05-04T12:16:38.768Z,99.90
2023-05-04T12:19:08.826Z,99.90
2023-05-04T12:21:36.188Z,99.90
2023-05-04T12:24:03.967Z,99.90
2023-05-04T12:26:31.476Z,99.90
2023-05-04T12:28:58.919Z,99.90
2023-05-04T12:31:27.139Z,99.90
2023-05-04T12:36:51.285Z,99.90
2023-05-04T12:39:18.818Z,99.90
2023-05-04T12:41:49.247Z,99.90
2023-05-04T12:44:20.635Z,99.90
2023-05-04T12:46:47.664Z,99.90
2023-05-04T12:49:15.119Z,99.90
2023-05-04T12:51:43.670Z,99.90
2023-05-04T12:54:11.223Z,99.90
2023-05-04T12:56:39.801Z,99.90
2023-05-04T12:59:09.819Z,99.90
2023-05-04T13:01:36.988Z,99.90
2023-05-04T13:04:08.462Z,99.90
2023-05-04T13:06:35.564Z,99.90
2023-05-04T13:09:05.826Z,99.90
2023-05-04T13:11:33.183Z,99.90
2023-05-04T13:14:00.961Z,99.90
2023-05-04T13:16:28.374Z,99.90
2023-05-04T13:18:55.891Z,99.90
2023-05-04T13:21:23.607Z,99.90
2023-05-04T13:23:51.539Z,99.90
2023-05-04T13:26:18.593Z,99.90
2023-05-04T13:28:45.947Z,99.90
2023-05-04T13:31:13.082Z,99.90
2023-05-04T13:33:41.408Z,99.90
2023-05-04T13:36:08.671Z,99.90
2023-05-04T13:38:36.692Z,99.90
2023-05-04T13:41:05.099Z,99.90
2023-05-04T13:43:32.432Z,99.90
2023-05-04T13:46:03.477Z,99.90
2023-05-04T13:48:32.877Z,99.90
2023-05-04T13:50:59.929Z,99.90
2023-05-04T13:53:27.307Z,99.90
2023-05-04T13:55:54.407Z,99.90
2023-05-04T13:58:21.788Z,99.90
2023-05-04T14:00:48.805Z,99.90
2023-05-04T14:03:16.205Z,99.90
2023-05-04T14:05:43.319Z,99.90
2023-05-04T14:08:10.583Z,99.90
2023-05-04T14:10:38.158Z,99.90
2023-05-04T14:13:05.810Z,99.90
2023-05-04T14:15:33.543Z,99.90
2023-05-04T14:18:00.836Z,99.90
2023-05-04T14:20:28.007Z,99.90
2023-05-04T14:22:56.845Z,99.90
2023-05-04T14:25:23.968Z,99.90
2023-05-04T14:27:52.039Z,99.90
2023-05-04T14:30:19.166Z,99.90
2023-05-04T14:32:46.586Z,99.90
2023-05-04T14:35:14.384Z,99.90
2023-05-04T14:37:41.692Z,99.90
2023-05-04T14:40:10.536Z,99.90
2023-05-04T14:42:38.862Z,99.90
2023-05-04T14:45:07.497Z,99.90
2023-05-04T14:47:37.338Z,99.90
2023-05-04T14:50:06.459Z,99.90
2023-05-04T14:52:34.021Z,99.90
2023-05-04T14:55:01.003Z,99.90
2023-05-04T14:57:28.341Z,99.90
2023-05-04T14:59:56.041Z,99.90
2023-05-04T15:02:23.578Z,99.90
2023-05-04T15:04:50.943Z,99.90
2023-05-04T15:07:20.796Z,99.90
2023-05-04T15:09:48.056Z,99.90
2023-05-04T15:12:17.709Z,99.90
2023-05-04T15:14:45.780Z,99.90
2023-05-04T15:17:13.105Z,99.90
2023-05-04T15:19:40.400Z,99.90
2023-05-04T15:22:07.986Z,99.90
2023-05-04T15:24:35.139Z,99.90
2023-05-04T15:27:02.487Z,99.90
2023-05-04T15:29:29.747Z,99.90
2023-05-04T15:31:57.288Z,99.90
2023-05-04T15:34:24.375Z,99.90
2023-05-04T15:36:52.727Z,99.90
2023-05-04T15:39:19.779Z,99.90
2023-05-04T15:41:47.288Z,99.90
2023-05-04T15:44:14.397Z,99.90
2023-05-04T15:46:41.745Z,99.90
2023-05-04T15:49:09.203Z,99.90
2023-05-04T15:51:36.734Z,99.90
2023-05-04T15:54:04.063Z,99.90
2023-05-04T15:56:31.581Z,99.90
2023-05-04T15:59:00.976Z,99.90
2023-05-04T16:01:28.420Z,99.90
2023-05-04T16:03:56.844Z,99.90
2023-05-04T16:06:24.324Z,99.90
2023-05-04T16:08:51.684Z,99.90
2023-05-04T16:11:18.941Z,99.90
2023-05-04T16:13:46.447Z,99.90
2023-05-04T16:16:13.941Z,99.90
2023-05-04T16:18:41.103Z,99.90
2023-05-04T16:21:08.920Z,99.90
2023-05-04T16:23:36.426Z,99.90
2023-05-04T16:26:03.979Z,99.90
2023-05-04T16:28:31.224Z,99.90
2023-05-04T16:30:58.646Z,99.90
2023-05-04T16:33:26.742Z,99.90
2023-05-04T16:35:54.172Z,99.90
2023-05-04T16:38:21.218Z,99.90
2023-05-04T16:40:48.599Z,99.90
2023-05-04T16:43:15.906Z,99.90
2023-05-04T16:45:43.548Z,99.90
2023-05-04T16:48:10.638Z,99.90
2023-05-04T16:50:38.601Z,99.90
2023-05-04T16:53:05.604Z,99.90
2023-05-04T16:55:32.947Z,99.90
2023-05-04T16:58:00.191Z,99.90
2023-05-04T17:00:28.519Z,99.90
2023-05-04T17:02:55.644Z,99.90
2023-05-04T17:05:23.169Z,99.90
2023-05-04T17:07:50.743Z,99.90
2023-05-04T17:10:18.838Z,99.90
2023-05-04T17:12:46.113Z,99.90
2023-05-04T17:15:13.832Z,99.90
2023-05-04T17:17:41.574Z,99.90
2023-05-04T17:20:14.442Z,99.90
2023-05-04T17:22:42.751Z,99.90
2023-05-04T17:25:11.378Z,99.90
2023-05-04T17:27:38.826Z,99.90
2023-05-04T17:30:07.105Z,99.90
2023-05-04T17:32:36.037Z,99.90
2023-05-04T17:35:15.914Z,99.90
2023-05-04T17:37:47.820Z,99.90
2023-05-04T17:40:16.223Z,99.90
2023-05-04T17:42:43.320Z,99.90
2023-05-04T17:45:10.966Z,99.90
2023-05-04T17:47:38.231Z,99.90
2023-05-04T17:50:06.197Z,99.90
2023-05-04T17:52:33.389Z,99.90
2023-05-04T17:55:01.076Z,99.90
2023-05-04T17:57:28.133Z,99.90
2023-05-04T17:59:55.525Z,99.90
2023-05-04T18:02:22.599Z,99.90
2023-05-04T18:04:49.935Z,99.90
2023-05-04T18:07:17.136Z,99.90
2023-05-04T18:09:44.608Z,99.90
2023-05-04T18:12:11.763Z,99.90
2023-05-04T18:14:39.249Z,99.90
2023-05-04T18:17:06.393Z,99.90
2023-05-04T18:19:37.072Z,99.90
2023-05-04T18:22:04.178Z,99.90
2023-05-04T18:24:34.199Z,99.90
2023-05-04T18:27:02.133Z,99.90
2023-05-04T18:29:29.615Z,99.90
2023-05-04T18:31:56.825Z,99.90
2023-05-04T18:34:24.120Z,99.90
2023-05-04T18:36:51.195Z,99.90
2023-05-04T18:39:18.947Z,99.90
2023-05-04T18:41:46.214Z,99.90
2023-05-04T18:44:17.207Z,99.90
2023-05-04T18:46:44.294Z,99.90
2023-05-04T18:49:11.607Z,99.90
2023-05-04T18:51:41.700Z,99.90
2023-05-04T18:54:09.288Z,99.90
2023-05-04T18:56:36.583Z,99.90
2023-05-04T18:59:06.105Z,99.90
2023-05-04T19:01:33.379Z,99.90
2023-05-04T19:04:01.255Z,99.90
2023-05-04T19:06:28.530Z,99.90
2023-05-04T19:08:55.841Z,99.90
2023-05-04T19:11:22.819Z,99.90
2023-05-04T19:13:50.192Z,99.90
2023-05-04T19:16:17.597Z,99.90
2023-05-04T19:18:45.742Z,99.90
2023-05-04T19:21:12.964Z,99.90
2023-05-04T19:23:43.179Z,99.90
2023-05-04T19:26:10.245Z,99.90
2023-05-04T19:28:39.884Z,99.90
2023-05-04T19:31:07.343Z,99.90
2023-05-04T19:33:47.255Z,99.90
2023-05-04T19:36:16.431Z,99.90
2023-05-04T19:38:47.028Z,99.90
2023-05-04T19:41:14.662Z,99.90
2023-05-04T19:43:42.697Z,99.90
2023-05-04T19:46:09.858Z,99.90
2023-05-04T19:48:38.305Z,99.90
2023-05-04T19:51:05.313Z,99.90
2023-05-04T19:53:32.762Z,99.90
2023-05-04T19:56:01.391Z,99.90
2023-05-04T19:58:30.939Z,99.90
2023-05-04T20:00:58.080Z,99.90
2023-05-04T20:03:25.517Z,99.90
2023-05-04T20:05:55.286Z,99.90
2023-05-04T20:08:22.717Z,99.90
2023-05-04T20:10:49.975Z,99.90
2023-05-04T20:13:18.580Z,99.90
2023-05-04T20:15:45.860Z,99.90
2023-05-04T20:18:13.390Z,99.90
2023-05-04T20:20:40.949Z,99.90
2023-05-04T20:23:08.648Z,99.90
2023-05-04T20:25:35.757Z,99.90
2023-05-04T20:28:05.365Z,99.90
2023-05-04T20:30:32.621Z,99.90
2023-05-04T20:33:00.429Z,99.90
2023-05-04T20:35:27.538Z,99.90
2023-05-04T20:37:55.133Z,99.90
2023-05-04T20:40:22.504Z,99.90
2023-05-04T20:42:49.801Z,99.90
2023-05-04T20:45:16.929Z,99.90
2023-05-04T20:47:44.225Z,99.90
2023-05-04T20:50:12.028Z,99.90
2023-05-04T20:52:39.648Z,99.90
2023-05-04T20:55:07.774Z,99.90
2023-05-04T20:57:38.121Z,99.90
2023-05-04T21:00:06.564Z,99.90
2023-05-04T21:02:34.866Z,99.90
2023-05-04T21:05:04.407Z,99.90
2023-05-04T21:07:31.775Z,99.90
2023-05-04T21:09:59.277Z,99.90
2023-05-04T21:12:26.995Z,99.90
2023-05-04T21:14:55.493Z,99.90
2023-05-04T21:17:25.607Z,99.90
2023-05-04T21:19:55.447Z,99.90
2023-05-04T21:22:22.751Z,99.90
2023-05-04T21:24:49.770Z,99.90
2023-05-04T21:27:17.108Z,99.90
2023-05-04T21:29:44.195Z,99.90
2023-05-04T21:32:11.744Z,99.90
2023-05-04T21:34:38.774Z,99.90
2023-05-04T21:37:06.064Z,99.90
2023-05-04T21:39:33.138Z,99.90
2023-05-04T21:42:01.901Z,99.90
2023-05-04T21:44:28.977Z,99.90
2023-05-04T21:46:56.334Z,99.90
2023-05-04T21:49:23.513Z,99.90
2023-05-04T21:51:50.830Z,99.90
2023-05-04T21:54:17.848Z,99.90
2023-05-04T21:56:45.446Z,99.90
2023-05-04T21:59:12.726Z,99.90
2023-05-04T22:01:40.360Z,99.90
2023-05-04T22:04:10.389Z,99.90
2023-05-04T22:06:37.796Z,99.90
2023-05-04T22:09:05.184Z,99.90
2023-05-04T22:11:32.499Z,99.90
2023-05-04T22:13:59.507Z,99.90
2023-05-04T22:16:27.381Z,99.90
2023-05-04T22:18:54.430Z,99.90
2023-05-04T22:21:21.684Z,99.90
2023-05-04T22:23:48.773Z,99.90
2023-05-04T22:26:16.020Z,99.90
2023-05-04T22:28:43.070Z,99.90
2023-05-04T22:31:10.483Z,99.90
2023-05-04T22:33:37.525Z,99.90
2023-05-04T22:36:05.324Z,99.90
2023-05-04T22:38:32.362Z,99.90
2023-05-04T22:40:59.601Z,99.90
2023-05-04T22:43:26.541Z,99.90
2023-05-04T22:45:53.815Z,99.90
2023-05-04T22:48:21.152Z,99.90
2023-05-04T22:50:48.634Z,99.90
2023-05-04T22:53:15.818Z,99.90
2023-05-04T22:55:43.482Z,99.90
2023-05-04T22:58:10.475Z,99.90
2023-05-04T23:00:37.794Z,99.90
2023-05-04T23:03:06.049Z,99.90
2023-05-04T23:05:33.544Z,99.90
2023-05-04T23:08:00.590Z,99.90
2023-05-04T23:10:27.930Z,99.90
2023-05-04T23:12:54.926Z,99.90
2023-05-04T23:15:24.820Z,99.90
2023-05-04T23:17:53.672Z,99.90
2023-05-04T23:20:21.519Z,99.90
2023-05-04T23:22:48.491Z,99.90
2023-05-04T23:25:15.876Z,99.90
2023-05-04T23:27:42.918Z,99.90
2023-05-04T23:30:10.567Z,99.90
2023-05-04T23:32:37.759Z,99.90
2023-05-04T23:35:05.648Z,99.90
2023-05-04T23:37:33.017Z,99.90
2023-05-04T23:40:00.709Z,99.90
2023-05-04T23:42:27.691Z,99.90
2023-05-04T23:44:58.349Z,99.90
2023-05-04T23:47:25.470Z,99.90
2023-05-04T23:49:52.788Z,99.90
2023-05-04T23:52:19.808Z,99.90
2023-05-04T23:54:47.054Z,99.90
2023-05-04T23:57:14.086Z,99.90
2023-05-04T23:59:42.048Z,99.90
